• Join FlightAware (Why Join?)
  • Login
  • US Flag 
09:14AM EDT


 

Airport Tracker/Info


-or-


 

Live Flight TrackerFlight Track Log ✈ N4364B ✈ 04-May-2012 ✈ KBHM - KGBD

Flight Track Log - Related Links

Times and Time Zones

All times are in EDT time to prevent confusion due to time zone crossing. See the N4364B flight status page for this flight to view local times or setup timezone preferences in your user account.

Time Position Orientation Groundspeed Altitude Reporting Facility
EDT Latitude Longitude Course Direction KTS MPH feet Rate Location/Type
08:31AM 33.5486 -86.7831 249° West 93 107 1,100  Level Atlanta Center
08:33AM 33.5353 -86.8250 301° West 104 120 1,900 600 Climbing Atlanta Center
08:34AM 33.5533 -86.8606 311° West 112 129 2,700 660 Climbing Atlanta Center
08:35AM 33.5733 -86.8886 317° Northwest 107 123 3,300 540 Climbing Atlanta Center
08:36AM 33.5939 -86.9117 319° Northwest 113 130 3,800 480 Climbing Atlanta Center
08:37AM 33.6183 -86.9375 316° Northwest 114 131 4,300 420 Climbing Atlanta Center
08:38AM 33.6425 -86.9658 314° West 114 131 4,700 420 Climbing Atlanta Center
08:39AM 33.6628 -86.9914 306° West 116 133 5,200 420 Climbing Atlanta Center
08:40AM 33.6831 -87.0244 308° West 117 135 5,600 360 Climbing Atlanta Center
08:41AM 33.7050 -87.0578 309° West 117 135 6,000 360 Climbing Atlanta Center
08:42AM 33.7253 -87.0883 310° West 114 131 6,400 360 Climbing Atlanta Center
08:43AM 33.7414 -87.1114 308° West 113 130 6,700 360 Climbing Atlanta Center
08:44AM 33.7633 -87.1447 308° West 111 128 7,200 420 Climbing Atlanta Center
08:45AM 33.7814 -87.1728 297° West 102 117 7,600 300 Climbing Atlanta Center
08:46AM 33.7933 -87.2008 306° West 101 116 7,900 120 Climbing Atlanta Center
08:48AM 33.8314 -87.2639 302° West 111 128 8,100 60 Climbing Memphis Center
08:49AM 33.8492 -87.2983 304° West 124 143 8,100  Level Memphis Center
08:50AM 33.8708 -87.3375 306° West 129 148 8,100  Level Memphis Center
08:51AM 33.8947 -87.3767 304° West 139 160 8,100 -60 Level Memphis Center
08:52AM 33.9167 -87.4161 305° West 139 160 8,000  Descending Memphis Center
08:53AM 33.9383 -87.4528 307° West 139 160 8,100  Climbing Memphis Center
08:54AM 33.9644 -87.4944 306° West 144 166 8,100  Level Memphis Center
08:55AM 33.9881 -87.5339 308° West 144 166 8,100  Level Memphis Center
08:56AM 34.0119 -87.5706 310° West 144 166 8,100  Level Memphis Center
08:57AM 34.0378 -87.6075 308° West 144 166 8,100  Level Memphis Center
08:58AM 34.0617 -87.6442 293° West 144 166 8,100  Level Memphis Center
08:59AM 34.0772 -87.6889 300° West 144 166 8,100  Level Memphis Center
09:00AM 34.0947 -87.7261 293° West 144 166 8,100  Level Memphis Center
09:01AM 34.1103 -87.7708 297° West 144 166 8,100  Level Memphis Center
09:02AM 34.1278 -87.8128 299° West 144 166 8,100  Level Memphis Center
09:03AM 34.1475 -87.8550 299° West 144 166 8,100  Level Memphis Center
09:04AM 34.1669 -87.8969 299° West 144 166 8,100  Level Memphis Center
09:05AM 34.1889 -87.9442 298° West 144 166 8,100  Level Memphis Center
09:06AM 34.2086 -87.9886 299° West 144 166 8,100  Level Memphis Center
09:07AM 34.2281 -88.0308 298° West 144 166 8,100  Level Memphis Center
09:08AM 34.2478 -88.0756 299° West 149 171 8,100  Level Memphis Center
09:09AM 34.2672 -88.1178 298° West 149 171 8,100  Level Memphis Center
09:10AM 34.2867 -88.1625 298° West 154 177 8,100  Level Memphis Center
09:11AM 34.3042 -88.2022 298° West 154 177 8,100  Level Memphis Center
09:12AM 34.3236 -88.2472 297° West 154 177 8,100 -60 Level Memphis Center
09:13AM 34.3411 -88.2894 302° West 154 177 8,000 -60 Descending Memphis Center
09:14AM 34.3628 -88.3317 299° West 154 177 8,000  Level Memphis Center
09:15AM 34.3822 -88.3739 295° West 154 177 8,000  Level Memphis Center
09:16AM 34.3994 -88.4189 300° West 154 177 8,000  Level Memphis Center
09:17AM 34.4211 -88.4636 299° West 154 177 8,000  Level Memphis Center
09:18AM 34.4406 -88.5061 298° West 154 177 8,000  Level Memphis Center
09:19AM 34.4600 -88.5511 295° West 154 177 8,000  Level Memphis Center
09:20AM 34.4753 -88.5911 300° West 154 177 8,000  Level Memphis Center
09:21AM 34.4944 -88.6308 301° West 149 171 8,000  Level Memphis Center
09:22AM 34.5139 -88.6708 296° West 149 171 8,000  Level Memphis Center
09:23AM 34.5289 -88.7083 296° West 144 166 8,000  Level Memphis Center
09:24AM 34.5461 -88.7508 298° West 144 166 8,000  Level Memphis Center
09:25AM 34.5633 -88.7908 303° West 139 160 8,000  Level Memphis Center
09:26AM 34.5847 -88.8308 297° West 139 160 8,000  Level Memphis Center
09:27AM 34.6019 -88.8711 296° West 134 154 8,000  Level Memphis Center
09:28AM 34.6192 -88.9136 299° West 134 154 8,000  Level Memphis Center
09:29AM 34.6383 -88.9561 297° West 140 161 8,000  Level Memphis Center
09:30AM 34.6556 -88.9964 299° West 140 161 8,000  Level Memphis Center
09:31AM 34.6769 -89.0439 296° West 140 161 8,000  Level Memphis Center
09:32AM 34.6942 -89.0867 297° West 140 161 8,000  Level Memphis Center
09:33AM 34.7111 -89.1267 299° West 140 161 8,000  Level Memphis Center
09:34AM 34.7303 -89.1694 300° West 140 161 8,000  Level Memphis Center
09:35AM 34.7494 -89.2097 295° West 140 161 8,000  Level Memphis Center
09:36AM 34.7667 -89.2550 299° West 145 167 8,000  Level Memphis Center
09:37AM 34.7858 -89.2975 302° West 145 167 8,000  Level Memphis Center
09:38AM 34.8050 -89.3353 294° West 139 160 8,000  Level Memphis Center
09:39AM 34.8217 -89.3806 297° West 137 158 8,000  Level FAA TRACON SMA TRACON (SMA)
09:40AM 34.8331 -89.4083 298° West 136 157 8,000  Level FAA TRACON SMA TRACON (SMA)
09:40AM 34.8453 -89.4358 298° West 136 157 8,000  Level FAA TRACON SMA TRACON (SMA)
09:41AM 34.8572 -89.4636 298° West 136 157 8,000  Level FAA TRACON SMA TRACON (SMA)
09:42AM 34.8692 -89.4914 296° West 136 157 8,000  Level FAA TRACON SMA TRACON (SMA)
09:42AM 34.8803 -89.5186 298° West 136 157 8,000  Level FAA TRACON SMA TRACON (SMA)
09:43AM 34.8925 -89.5469 298° West 137 158 8,000  Level FAA TRACON SMA TRACON (SMA)
09:44AM 34.9036 -89.5725 297° West 136 157 8,000  Level FAA TRACON SMA TRACON (SMA)
09:44AM 34.9156 -89.6008 300° West 137 158 8,000  Level FAA TRACON SMA TRACON (SMA)
09:45AM 34.9258 -89.6225 296° West 139 160 8,000  Level Memphis Center
09:46AM 34.9397 -89.6575 298° West 135 155 8,000  Level FAA TRACON SMA TRACON (SMA)
09:46AM 34.9519 -89.6861 298° West 135 155 8,000  Level FAA TRACON SMA TRACON (SMA)
09:47AM 34.9642 -89.7142 297° West 135 155 8,000  Level FAA TRACON SMA TRACON (SMA)
09:48AM 34.9747 -89.7392 298° West 133 153 8,000  Level FAA TRACON SMA TRACON (SMA)
09:48AM 34.9869 -89.7672 298° West 134 154 8,000  Level FAA TRACON SMA TRACON (SMA)
09:49AM 35.0042 -89.8075 297° West 134 154 8,000  Level FAA TRACON SMA TRACON (SMA)
09:50AM 35.0161 -89.8358 297° West 134 154 8,000  Level FAA TRACON SMA TRACON (SMA)
09:51AM 35.0269 -89.8617 298° West 135 155 8,000  Level FAA TRACON SMA TRACON (SMA)
09:51AM 35.0386 -89.8889 298° West 133 153 8,000  Level FAA TRACON SMA TRACON (SMA)
09:52AM 35.0506 -89.9164 298° West 134 154 8,000  Level FAA TRACON SMA TRACON (SMA)
09:53AM 35.0631 -89.9447 297° West 135 155 8,000  Level FAA TRACON SMA TRACON (SMA)
09:53AM 35.0747 -89.9731 296° West 136 157 8,000  Level FAA TRACON SMA TRACON (SMA)
09:54AM 35.0853 -89.9992 297° West 134 154 8,000  Level FAA TRACON SMA TRACON (SMA)
09:55AM 35.0953 -90.0233 297° West 135 155 8,000  Level FAA TRACON SMA TRACON (SMA)
09:56AM 35.1083 -90.0544 297° West 133 153 8,000  Level FAA TRACON SMA TRACON (SMA)
09:56AM 35.1194 -90.0814 297° West 133 153 8,000  Level FAA TRACON SMA TRACON (SMA)
09:57AM 35.1311 -90.1092 298° West 135 155 8,000  Level FAA TRACON SMA TRACON (SMA)
09:57AM 35.1431 -90.1372 297° West 136 157 8,000  Level FAA TRACON SMA TRACON (SMA)
09:58AM 35.1531 -90.1614 298° West 133 153 8,000  Level FAA TRACON SMA TRACON (SMA)
09:59AM 35.1653 -90.1900 297° West 135 155 8,000  Level FAA TRACON SMA TRACON (SMA)
09:59AM 35.1769 -90.2186 297° West 135 155 8,000  Level FAA TRACON SMA TRACON (SMA)
10:00AM 35.1875 -90.2439 297° West 136 157 8,000  Level FAA TRACON SMA TRACON (SMA)
10:01AM 35.1992 -90.2725 297° West 135 155 8,000  Level FAA TRACON SMA TRACON (SMA)
10:01AM 35.2111 -90.3008 297° West 134 154 8,000  Level FAA TRACON SMA TRACON (SMA)
10:02AM 35.2214 -90.3256 297° West 133 153 8,000  Level FAA TRACON SMA TRACON (SMA)
10:03AM 35.2331 -90.3542 296° West 134 154 8,000  Level FAA TRACON SMA TRACON (SMA)
10:03AM 35.2444 -90.3828 297° West 134 154 8,000  Level FAA TRACON SMA TRACON (SMA)
10:04AM 35.2550 -90.4081 297° West 135 155 8,000  Level FAA TRACON SMA TRACON (SMA)
10:05AM 35.2669 -90.4364 298° West 135 155 8,000  Level FAA TRACON SMA TRACON (SMA)
10:05AM 35.2789 -90.4644 296° West 133 153 8,000  Level FAA TRACON SMA TRACON (SMA)
10:06AM 35.2892 -90.4897 297° West 134 154 8,000  Level FAA TRACON SMA TRACON (SMA)
10:07AM 35.3011 -90.5183 296° West 134 154 8,000  Level FAA TRACON SMA TRACON (SMA)
10:07AM 35.3131 -90.5478 302° West 138 159 8,000  Level FAA TRACON SMA TRACON (SMA)
10:08AM 35.3222 -90.5658 295° West 136 157 8,000  Level Memphis Center
10:09AM 35.3408 -90.6142 297° West 141 162 8,000  Level Memphis Center
10:10AM 35.3575 -90.6550 298° West 136 157 8,000  Level Memphis Center
10:11AM 35.3761 -90.6983 298° West 136 157 8,000  Level Memphis Center
10:12AM 35.3947 -90.7417 293° West 136 157 8,000  Level Memphis Center
10:13AM 35.4092 -90.7825 298° West 136 157 8,000  Level Memphis Center
10:14AM 35.4278 -90.8258 297° West 136 157 8,000  Level Memphis Center
10:15AM 35.4444 -90.8667 293° West 136 157 8,000  Level Memphis Center
10:16AM 35.4589 -90.9075 301° West 136 157 8,000  Level Memphis Center
10:17AM 35.4775 -90.9461 294° West 136 157 8,000 -180 Level Memphis Center
10:18AM 35.4939 -90.9919 298° West 136 157 7,700 -240 Descending Memphis Center
10:19AM 35.5103 -91.0303 300° West 142 163 7,600 -120 Descending Memphis Center
10:20AM 35.5311 -91.0739 300° West 142 163 7,500 -300 Descending Memphis Center
10:21AM 35.5517 -91.1175 296° West 142 163 7,100 -300 Descending Memphis Center
10:22AM 35.5700 -91.1636 296° West 142 163 7,000 -180 Descending Memphis Center
10:23AM 35.5886 -91.2097 294° West 147 169 6,800 -240 Descending Memphis Center
10:24AM 35.6050 -91.2558 296° West 152 175 6,600 -180 Descending Memphis Center
10:25AM 35.6253 -91.3072 299° West 152 175 6,500 -120 Descending Memphis Center
10:26AM 35.6458 -91.3533 297° West 152 175 6,400 -180 Descending Memphis Center
10:27AM 35.6642 -91.3969 292° West 152 175 6,200 -180 Descending Memphis Center
10:28AM 35.6806 -91.4458 299° West 158 182 6,100 -120 Descending Memphis Center
10:29AM 35.7011 -91.4919 293° West 153 176 6,000 -60 Descending Memphis Center
10:30AM 35.7172 -91.5383 295° West 153 176 6,000  Level Memphis Center
10:31AM 35.7336 -91.5819 297° West 153 176 6,000  Level Memphis Center
10:32AM 35.7519 -91.6258 294° West 153 176 6,000  Level Memphis Center
10:33AM 35.7681 -91.6694 293° West 153 176 6,000  Level Memphis Center
10:34AM 35.7842 -91.7158 296° West 153 176 6,000  Level Memphis Center
10:35AM 35.8025 -91.7622 296° West 153 176 6,000  Level Memphis Center
10:36AM 35.8189 -91.8033 302° West 153 176 6,000  Level Memphis Center
10:37AM 35.8411 -91.8472 294° West 153 176 6,000  Level Memphis Center
10:38AM 35.8572 -91.8911 293° West 153 176 6,000  Level Memphis Center
10:39AM 35.8714 -91.9325 297° West 148 170 6,000  Level Memphis Center
10:40AM 35.8897 -91.9764 296° West 148 170 6,000  Level Memphis Center
10:41AM 35.9058 -92.0178 297° West 143 165 6,000  Level Memphis Center
10:42AM 35.9239 -92.0617 296° West 143 165 6,000  Level Memphis Center
10:43AM 35.9400 -92.1031 299° West 137 158 6,000  Level Memphis Center
10:44AM 35.9583 -92.1444 294° West 137 158 6,000  Level Memphis Center
10:45AM 35.9703 -92.1781 297° West 137 158 6,000  Level Memphis Center
10:46AM 35.9883 -92.2219 297° West 137 158 6,000  Level Memphis Center
10:47AM 36.0083 -92.2711 293° West 143 165 6,000  Level Memphis Center
10:48AM 36.0225 -92.3125 297° West 143 165 6,000  Level Memphis Center
10:49AM 36.0364 -92.3464 298° West 136 157 6,000  Level Memphis Center
10:50AM 36.0586 -92.3983 296° West 136 157 6,000  Level Memphis Center
10:51AM 36.0747 -92.4397 293° West 136 157 6,000  Level Memphis Center
10:52AM 36.0886 -92.4811 298° West 136 157 6,000  Level Memphis Center
10:53AM 36.1064 -92.5228 296° West 136 157 6,000  Level Memphis Center
10:54AM 36.1225 -92.5642 295° West 136 157 6,000  Level Memphis Center
10:55AM 36.1383 -92.6058 296° West 136 157 6,000  Level Memphis Center
10:56AM 36.1544 -92.6472 298° West 136 157 6,000  Level Memphis Center
10:57AM 36.1722 -92.6889 291° West 136 157 6,000  Level Memphis Center
10:58AM 36.1861 -92.7331 295° West 136 157 6,000  Level Memphis Center
10:59AM 36.2000 -92.7694 298° West 136 157 6,000  Level Memphis Center
11:00AM 36.2181 -92.8111 292° West 136 157 6,000  Level Memphis Center
11:01AM 36.2317 -92.8528 297° West 136 157 6,000  Level Memphis Center
11:02AM 36.2475 -92.8919 295° West 136 157 6,000  Level Memphis Center
11:03AM 36.2633 -92.9336 298° West 136 157 6,000  Level Memphis Center
11:04AM 36.2814 -92.9753 296° West 136 157 6,000  Level Memphis Center
11:05AM 36.2992 -93.0197 292° West 136 157 6,000  Level Memphis Center
11:06AM 36.3128 -93.0614 298° West 136 157 6,000  Level Memphis Center
11:07AM 36.3306 -93.1031 292° West 136 157 6,000  Level Memphis Center
11:08AM 36.3444 -93.1447 299° West 136 157 6,000  Level Memphis Center
11:09AM 36.3622 -93.1842 295° West 136 157 6,000  Level Memphis Center
11:20AM 36.5267 -93.6169 298° West 127 146 6,000  Level Kansas City Center
11:21AM 36.5439 -93.6581 296° West 127 146 6,000  Level Kansas City Center
11:22AM 36.5608 -93.7019 291° West 137 158 6,000  Level Kansas City Center
11:23AM 36.5736 -93.7431 285° West 131 151 6,000  Level Kansas City Center
11:24AM 36.5822 -93.7819 294° West 131 151 6,000  Level Kansas City Center
11:25AM 36.5969 -93.8231 294° West 126 145 6,000  Level Kansas City Center
11:26AM 36.6119 -93.8644 297° West 126 145 6,000  Level Kansas City Center
11:27AM 36.6308 -93.9108 294° West 131 151 6,000  Level Kansas City Center
11:28AM 36.6456 -93.9522 296° West 131 151 6,000  Level Kansas City Center
11:29AM 36.6625 -93.9961 297° West 131 151 6,000  Level Kansas City Center
11:30AM 36.6794 -94.0372 296° West 131 151 6,000  Level Kansas City Center
11:31AM 36.6964 -94.0811 294° West 131 151 6,000  Level Kansas City Center
11:32AM 36.7111 -94.1225 297° West 131 151 6,000  Level Kansas City Center
11:33AM 36.7278 -94.1639 290° West 131 151 6,000  Level Kansas City Center
11:34AM 36.7406 -94.2081 301° West 131 151 6,000  Level Kansas City Center
11:35AM 36.7594 -94.2469 292° West 131 151 6,000  Level Kansas City Center
11:36AM 36.7739 -94.2908 293° West 131 151 6,000  Level Kansas City Center
11:37AM 36.7886 -94.3347 298° West 131 151 6,000  Level Kansas City Center
11:38AM 36.8056 -94.3739 295° West 131 151 6,000  Level Kansas City Center
11:39AM 36.8222 -94.4178 289° West 131 151 6,000  Level Kansas City Center
11:40AM 36.8347 -94.4619 300° West 131 151 6,000  Level Kansas City Center
11:41AM 36.8536 -94.5036 294° West 131 151 6,000  Level Kansas City Center
11:42AM 36.8681 -94.5450 295° West 131 151 6,000  Level Kansas City Center
11:43AM 36.8847 -94.5892 295° West 131 151 6,000  Level Kansas City Center
11:44AM 36.9014 -94.6333 295° West 131 151 6,000  Level Kansas City Center
11:45AM 36.9181 -94.6775 292° West 131 151 6,000  Level Kansas City Center
11:46AM 36.9325 -94.7217 297° West 131 151 6,000  Level Kansas City Center
11:47AM 36.9514 -94.7686 293° West 131 151 6,000  Level Kansas City Center
11:48AM 36.9658 -94.8103 295° West 131 151 6,000  Level Kansas City Center
11:49AM 36.9822 -94.8544 294° West 131 151 6,000  Level Kansas City Center
11:50AM 36.9969 -94.8961 296° West 131 151 6,000  Level Kansas City Center
11:51AM 37.0133 -94.9378 292° West 131 151 6,000 -60 Level Kansas City Center
11:52AM 37.0278 -94.9822 295° West 131 151 5,900  Descending Kansas City Center
11:53AM 37.0442 -95.0264 293° West 131 151 6,000  Climbing Kansas City Center
11:54AM 37.0586 -95.0683 297° West 131 151 5,900  Descending Kansas City Center
11:55AM 37.0753 -95.1100 295° West 131 151 6,000  Climbing Kansas City Center
11:56AM 37.0917 -95.1544 293° West 131 151 5,900 -60 Descending Kansas City Center
11:57AM 37.1061 -95.1961 293° West 131 151 5,900  Level Kansas City Center
11:58AM 37.1203 -95.2381 299° West 131 151 6,000  Climbing Kansas City Center
11:59AM 37.1389 -95.2797 289° West 131 151 5,900  Descending Kansas City Center
12:00PM 37.1511 -95.3242 296° West 131 151 6,000  Climbing Kansas City Center
12:01PM 37.1675 -95.3661 293° West 131 151 5,900  Descending Kansas City Center
12:02PM 37.1817 -95.4081 296° West 131 151 6,000  Climbing Kansas City Center
12:03PM 37.1981 -95.4500 294° West 131 151 5,900 -60 Descending Kansas City Center
12:04PM 37.2125 -95.4917 296° West 131 151 5,900  Level Kansas City Center
12:05PM 37.2289 -95.5336 293° West 131 151 5,900 -60 Level Kansas City Center
12:06PM 37.2431 -95.5758 294° West 131 151 5,800 -60 Descending Kansas City Center
12:07PM 37.2592 -95.6203 295° West 131 151 5,800  Level Kansas City Center
12:08PM 37.2736 -95.6597 295° West 131 151 5,900  Climbing Kansas City Center
12:09PM 37.2897 -95.7042 292° West 131 151 5,900  Level Kansas City Center
12:10PM 37.3039 -95.7489 296° West 131 151 5,900 -60 Level Kansas City Center
12:11PM 37.3203 -95.7908 291° West 131 151 5,800  Descending Kansas City Center
12:12PM 37.3322 -95.8303 292° West 131 151 5,900  Climbing Kansas City Center
12:13PM 37.3464 -95.8750 296° West 131 151 5,800 -60 Descending Kansas City Center
12:14PM 37.3625 -95.9169 296° West 131 151 5,800  Level Kansas City Center
12:15PM 37.3786 -95.9592 293° West 131 151 5,900  Climbing Kansas City Center
12:16PM 37.3928 -96.0014 294° West 131 151 5,800  Descending Kansas City Center
12:17PM 37.4089 -96.0461 296° West 131 151 5,900  Climbing Kansas City Center
12:18PM 37.4231 -96.0831 296° West 131 151 5,900  Level Kansas City Center
12:19PM 37.4392 -96.1250 288° West 131 151 5,900  Level Kansas City Center
12:20PM 37.4511 -96.1725 296° West 136 157 5,900  Level Kansas City Center
12:21PM 37.4672 -96.2147 291° West 136 157 5,900 -60 Level Kansas City Center
12:22PM 37.4811 -96.2594 296° West 136 157 5,800  Descending Kansas City Center
12:23PM 37.4972 -96.3017 295° West 131 151 5,900  Climbing Kansas City Center
12:24PM 37.5131 -96.3442 293° West 131 151 5,800 -60 Descending Kansas City Center
12:25PM 37.5272 -96.3864 291° West 131 151 5,800  Level Kansas City Center
12:26PM 37.5411 -96.4311 290° West 131 151 5,800  Level Kansas City Center
12:27PM 37.5547 -96.4786 287° West 137 158 5,900 60 Climbing Kansas City Center
12:27PM 37.5606 -96.5025 293° West 135 155 5,900 60 Level Kansas City Center
12:28PM 37.5786 -96.5553 290° West 135 155 6,000  Climbing Kansas City Center
12:29PM 37.5922 -96.6028 298° West 137 158 6,000  Level Kansas City Center
12:30PM 37.6103 -96.6453 294° West 144 166 6,000  Level Kansas City Center
12:31PM 37.6242 -96.6850 303° West 142 163 6,000  Level Kansas City Center
12:32PM 37.6322 -96.7008 289° West 142 163 6,000  Level Kansas City Center
12:32PM 37.6400 -96.7300 296° West 135 155 6,000  Level Kansas City Center
12:33PM 37.6561 -96.7725 288° West 134 154 6,000  Level Kansas City Center
12:34PM 37.6694 -96.8253 292° West 134 154 6,000  Level Kansas City Center
12:35PM 37.6833 -96.8678 290° West 131 151 6,000  Level Kansas City Center
12:36PM 37.6969 -96.9153 297° West 135 155 6,000  Level Kansas City Center
12:37PM 37.7128 -96.9553 297° West 138 159 6,000  Level Kansas City Center
12:38PM 37.7308 -97.0006 294° West 140 161 6,000  Level Kansas City Center
12:39PM 37.7464 -97.0456 289° West 141 162 6,000  Level Kansas City Center
12:40PM 37.7600 -97.0961 296° West 145 167 6,000  Level Kansas City Center
12:41PM 37.7797 -97.1467 293° West 146 168 6,000  Level Kansas City Center
12:43PM 37.7972 -97.1997 294° West 150 173 6,000  Level Kansas City Center
12:44PM 37.8150 -97.2506 297° West 148 170 6,000  Level Kansas City Center
12:44PM 37.8267 -97.2797 289° West 148 170 6,000  Level Kansas City Center
12:45PM 37.8403 -97.3303 296° West 150 173 6,000  Level Kansas City Center
12:46PM 37.8597 -97.3808 290° West 148 170 6,000  Level Kansas City Center
12:47PM 37.8733 -97.4289 295° West 150 173 6,000  Level Kansas City Center
12:48PM 37.8889 -97.4717 289° West 151 174 6,000  Level Kansas City Center
12:49PM 37.9022 -97.5194 292° West 150 173 6,000  Level Kansas City Center
12:50PM 37.9178 -97.5675 296° West 147 169 6,000  Level Kansas City Center
12:51PM 37.9372 -97.6183 296° West 148 170 6,000  Level Kansas City Center
12:53PM 37.9589 -97.6744 296° West 153 176 6,000  Level Kansas City Center